Time;durP1;ratioP1;P1;durP2;ratioP2;P2;SDS_P1;SDS_P2;PMS_P1;PMS_P2;Temp;Humidity;BMP_temperature;BMP_pressure;BME280_temperature;BME280_humidity;BME280_pressure;Samples;Min_cycle;Max_cycle;Signal;HPM_P1;HPM_P2
2023/05/06 00:00:05;;;;;;;8.73;6.13;;;8.80;91.20;;;;;;5073943;28;20501;-77
2023/05/06 00:02:30;;;;;;;8.38;5.85;;;8.70;91.60;;;;;;5072121;28;20489;-77
2023/05/06 00:04:56;;;;;;;10.13;5.93;;;8.70;91.40;;;;;;5072607;28;20020;-79
2023/05/06 00:07:21;;;;;;;8.50;6.03;;;8.70;91.90;;;;;;5073505;28;20029;-79
2023/05/06 00:09:47;;;;;;;9.88;6.18;;;8.70;92.40;;;;;;5072605;28;20111;-77
2023/05/06 00:12:13;;;;;;;8.40;5.88;;;8.70;93.50;;;;;;5072001;28;20112;-79
2023/05/06 00:14:39;;;;;;;9.60;6.72;;;8.70;94.00;;;;;;5073637;28;20159;-79
2023/05/06 00:17:05;;;;;;;9.70;6.00;;;8.60;94.30;;;;;;5073099;28;20492;-77
2023/05/06 00:19:30;;;;;;;7.35;5.40;;;8.60;95.50;;;;;;5071756;28;20078;-78
2023/05/06 00:21:56;;;;;;;7.85;6.05;;;8.60;96.50;;;;;;5071144;28;20024;-77
2023/05/06 00:24:22;;;;;;;8.02;6.10;;;8.60;95.60;;;;;;5073179;28;20047;-78
2023/05/06 00:26:47;;;;;;;8.95;5.97;;;8.60;96.80;;;;;;5071765;28;20121;-77
2023/05/06 00:29:13;;;;;;;12.70;7.13;;;8.60;96.10;;;;;;5073503;28;20030;-79
2023/05/06 00:31:40;;;;;;;9.18;5.97;;;8.60;96.60;;;;;;5073114;28;20043;-77
2023/05/06 00:34:05;;;;;;;7.15;6.45;;;8.60;97.10;;;;;;5071581;28;20032;-77
2023/05/06 00:36:31;;;;;;;6.05;5.30;;;8.60;98.00;;;;;;5073419;28;20432;-77
2023/05/06 00:38:56;;;;;;;7.75;6.25;;;8.60;96.80;;;;;;5073083;28;20021;-78
2023/05/06 00:41:22;;;;;;;9.05;6.22;;;8.60;98.10;;;;;;5073355;28;20028;-77
2023/05/06 00:43:48;;;;;;;8.85;5.75;;;8.60;97.30;;;;;;5072807;28;20383;-79
2023/05/06 00:46:16;;;;;;;8.55;5.70;;;8.60;96.70;;;;;;5071554;28;20478;-80
2023/05/06 00:48:43;;;;;;;7.20;6.20;;;8.60;97.40;;;;;;5071952;28;20402;-77
2023/05/06 00:51:09;;;;;;;7.28;6.18;;;8.60;97.70;;;;;;5072738;28;20398;-79
2023/05/06 00:53:35;;;;;;;7.85;6.13;;;8.50;98.40;;;;;;5071603;28;20016;-79
2023/05/06 00:56:01;;;;;;;8.65;6.22;;;8.50;97.60;;;;;;5071452;28;20382;-79
2023/05/06 00:58:26;;;;;;;10.55;5.90;;;8.50;97.90;;;;;;5071810;28;20102;-79
2023/05/06 01:00:52;;;;;;;8.15;6.80;;;8.40;98.70;;;;;;5071125;28;20060;-79
2023/05/06 01:03:18;;;;;;;7.22;6.03;;;8.40;99.50;;;;;;5072952;28;20024;-79
2023/05/06 01:05:54;;;;;;;8.15;6.00;;;8.40;99.90;;;;;;5072604;28;20063;-78
2023/05/06 01:08:33;;;;;;;8.27;5.68;;;8.30;99.90;;;;;;5071449;28;20390;-77
2023/05/06 01:11:12;;;;;;;8.32;6.20;;;8.30;99.90;;;;;;5072979;28;20036;-77
2023/05/06 01:13:49;;;;;;;8.70;6.15;;;8.30;99.90;;;;;;5075355;28;20127;-77
2023/05/06 01:16:18;;;;;;;8.13;5.22;;;8.30;99.90;;;;;;5076843;28;20351;-79
2023/05/06 01:18:44;;;;;;;10.68;5.43;;;8.20;99.90;;;;;;5076750;28;20020;-77
2023/05/06 01:21:11;;;;;;;11.02;5.22;;;8.30;99.90;;;;;;5075477;28;20047;-79
2023/05/06 01:23:54;;;;;;;8.65;5.80;;;8.20;99.90;;;;;;5076961;28;20028;-77
2023/05/06 01:26:20;;;;;;;;;;;8.20;99.90;;;;;;5075751;28;20017;-77
2023/05/06 01:28:46;;;;;;;14.55;6.13;;;8.20;99.90;;;;;;5076515;28;20277;-78
2023/05/06 01:31:16;;;;;;;9.70;5.82;;;8.20;99.90;;;;;;5074986;28;20041;-79
2023/05/06 01:34:24;;;;;;;10.32;5.65;;;8.10;99.90;;;;;;5075483;28;20062;-80
2023/05/06 01:36:52;;;;;;;8.13;5.60;;;8.10;99.90;;;;;;5076407;28;20416;-79
2023/05/06 01:39:30;;;;;;;8.13;4.95;;;8.10;99.90;;;;;;5075502;28;20032;-77
2023/05/06 01:41:59;;;;;;;11.02;6.10;;;8.10;99.90;;;;;;5074930;28;20042;-77
2023/05/06 01:44:27;;;;;;;9.10;6.22;;;8.10;99.90;;;;;;5076768;28;20095;-78
2023/05/06 01:46:55;;;;;;;7.82;5.20;;;8.10;99.90;;;;;;5076160;28;20017;-79
2023/05/06 01:49:22;;;;;;;7.32;5.65;;;8.00;99.90;;;;;;5076540;28;20048;-79
2023/05/06 01:51:49;;;;;;;9.07;5.82;;;8.00;99.90;;;;;;5074755;28;20039;-77
2023/05/06 01:54:15;;;;;;;10.70;6.30;;;8.00;99.90;;;;;;5076429;28;20064;-79
2023/05/06 01:56:40;;;;;;;10.00;5.88;;;8.00;99.90;;;;;;5074688;28;20032;-77
2023/05/06 01:59:06;;;;;;;7.35;5.75;;;8.00;99.90;;;;;;5076311;28;20104;-78
2023/05/06 02:01:32;;;;;;;10.63;6.72;;;7.90;99.90;;;;;;5074644;28;20028;-80
2023/05/06 02:03:57;;;;;;;9.93;6.03;;;7.90;99.90;;;;;;5076136;28;20381;-77
2023/05/06 02:06:23;;;;;;;7.95;5.68;;;7.90;99.90;;;;;;5075819;28;20029;-77
2023/05/06 02:08:48;;;;;;;7.95;5.13;;;7.80;99.90;;;;;;5075688;28;20055;-80
2023/05/06 02:11:14;;;;;;;7.88;5.53;;;7.80;99.90;;;;;;5075680;28;20028;-79
2023/05/06 02:13:40;;;;;;;7.47;5.22;;;7.80;99.90;;;;;;5076016;28;20102;-77
2023/05/06 02:16:05;;;;;;;8.40;6.65;;;7.80;99.90;;;;;;5075646;28;20367;-78
2023/05/06 02:18:31;;;;;;;8.75;5.85;;;7.70;99.90;;;;;;5075620;28;20150;-77
2023/05/06 02:20:57;;;;;;;7.03;6.32;;;7.70;99.90;;;;;;5073870;28;20025;-77
2023/05/06 02:23:22;;;;;;;10.68;6.00;;;7.70;99.90;;;;;;5074184;28;20020;-78
2023/05/06 02:25:49;;;;;;;7.47;6.45;;;7.70;99.90;;;;;;5074259;28;20027;-77
2023/05/06 02:28:14;;;;;;;6.93;6.28;;;7.60;99.90;;;;;;5075656;28;20016;-78
2023/05/06 02:30:40;;;;;;;8.00;6.30;;;7.60;99.90;;;;;;5074094;28;20039;-77
2023/05/06 02:33:05;;;;;;;6.80;6.10;;;7.60;99.90;;;;;;5074199;28;20020;-78
2023/05/06 02:35:31;;;;;;;7.35;5.72;;;7.50;99.90;;;;;;5075370;28;20020;-79
2023/05/06 02:37:57;;;;;;;6.15;4.97;;;7.60;99.90;;;;;;5075447;28;20024;-77
2023/05/06 02:40:23;;;;;;;8.07;5.40;;;7.50;99.90;;;;;;5075299;28;20020;-77
2023/05/06 02:42:49;;;;;;;8.25;5.45;;;7.50;99.90;;;;;;5075416;28;20475;-77
2023/05/06 02:45:15;;;;;;;7.93;5.43;;;7.50;99.90;;;;;;5075293;28;20389;-80
2023/05/06 02:47:40;;;;;;;8.70;5.50;;;7.50;99.90;;;;;;5075329;28;20103;-77
2023/05/06 02:50:06;;;;;;;7.18;5.93;;;7.40;99.90;;;;;;5074844;28;20025;-80
2023/05/06 02:52:33;;;;;;;7.22;4.97;;;7.50;99.90;;;;;;5073730;28;20481;-78
2023/05/06 02:54:59;;;;;;;9.82;6.35;;;7.50;99.90;;;;;;5073568;28;20020;-79
2023/05/06 02:57:25;;;;;;;6.78;5.80;;;7.50;99.90;;;;;;5074037;28;20055;-78
2023/05/06 02:59:50;;;;;;;7.28;5.40;;;7.50;99.90;;;;;;5073511;28;20044;-79
2023/05/06 03:02:16;;;;;;;9.05;6.13;;;7.50;99.90;;;;;;5075143;28;20056;-78
2023/05/06 03:04:41;;;;;;;9.27;5.93;;;7.50;99.90;;;;;;5074772;28;20028;-78
2023/05/06 03:07:07;;;;;;;8.18;6.07;;;7.60;99.90;;;;;;5074807;28;20024;-77
2023/05/06 03:09:32;;;;;;;7.22;6.03;;;7.60;99.90;;;;;;5075100;28;20029;-79
2023/05/06 03:11:58;;;;;;;8.43;5.85;;;7.60;99.90;;;;;;5074490;28;20036;-80
2023/05/06 03:14:24;;;;;;;7.00;5.65;;;7.60;99.90;;;;;;5079522;28;20055;-77
2023/05/06 03:16:49;;;;;;;9.23;5.97;;;7.60;99.90;;;;;;5080129;28;20039;-79
2023/05/06 03:19:15;;;;;;;9.60;6.57;;;7.60;99.90;;;;;;5074695;28;20021;-76
2023/05/06 03:21:40;;;;;;;6.95;5.55;;;7.60;99.90;;;;;;5074410;28;20064;-79
2023/05/06 03:24:06;;;;;;;9.60;7.05;;;7.70;99.90;;;;;;5073404;28;20050;-79
2023/05/06 03:26:31;;;;;;;7.38;6.22;;;7.70;99.90;;;;;;5072955;28;20378;-77
2023/05/06 03:28:57;;;;;;;8.90;6.10;;;7.70;99.90;;;;;;5074425;28;20378;-77
2023/05/06 03:31:23;;;;;;;8.85;5.95;;;7.70;99.90;;;;;;5074129;28;20048;-80
2023/05/06 03:33:49;;;;;;;7.97;5.68;;;7.70;99.90;;;;;;5072640;28;20040;-77
2023/05/06 03:36:14;;;;;;;9.73;6.72;;;7.80;99.90;;;;;;5074103;28;20147;-79
2023/05/06 03:38:40;;;;;;;8.52;6.00;;;7.80;99.90;;;;;;5073995;28;20028;-79
2023/05/06 03:41:06;;;;;;;9.25;6.03;;;7.80;99.90;;;;;;5073049;28;20386;-79
2023/05/06 03:43:31;;;;;;;9.98;5.82;;;7.80;99.90;;;;;;5073919;28;20025;-77
2023/05/06 03:45:57;;;;;;;11.00;6.15;;;7.80;99.90;;;;;;5074397;28;20017;-77
2023/05/06 03:48:23;;;;;;;10.63;6.22;;;7.90;99.90;;;;;;5072514;28;20028;-76
2023/05/06 03:50:49;;;;;;;7.72;5.00;;;7.90;99.90;;;;;;5073715;28;20033;-77
2023/05/06 03:53:14;;;;;;;8.50;6.03;;;8.00;99.90;;;;;;5072828;28;20055;-77
2023/05/06 03:55:40;;;;;;;13.50;6.25;;;7.90;99.90;;;;;;5072469;28;20028;-79
2023/05/06 03:58:06;;;;;;;13.40;6.45;;;7.90;99.90;;;;;;5074007;28;20078;-80
2023/05/06 04:00:32;;;;;;;7.13;5.75;;;8.00;99.90;;;;;;5072379;28;20051;-79
2023/05/06 04:02:57;;;;;;;7.13;5.30;;;8.00;99.90;;;;;;5072672;28;20024;-79
2023/05/06 04:05:23;;;;;;;9.10;6.00;;;8.00;99.90;;;;;;5072226;28;20024;-80
2023/05/06 04:07:49;;;;;;;7.57;5.30;;;8.00;99.90;;;;;;5073744;28;20080;-80
2023/05/06 04:10:15;;;;;;;8.07;5.53;;;8.10;99.90;;;;;;5073444;28;20070;-79
2023/05/06 04:12:40;;;;;;;8.55;5.88;;;8.10;99.90;;;;;;5072514;28;20504;-77
2023/05/06 04:15:06;;;;;;;7.82;5.35;;;8.20;99.90;;;;;;5073319;28;20422;-77
2023/05/06 04:17:32;;;;;;;6.15;5.15;;;8.20;99.90;;;;;;5073564;28;20478;-79
2023/05/06 04:19:58;;;;;;;7.93;5.80;;;8.30;99.90;;;;;;5073663;28;20086;-80
2023/05/06 04:22:23;;;;;;;9.98;5.65;;;8.30;99.90;;;;;;5071994;28;20017;-77
2023/05/06 04:24:49;;;;;;;8.68;5.97;;;8.40;99.90;;;;;;5073255;28;20060;-77
2023/05/06 04:27:14;;;;;;;6.50;5.63;;;8.50;99.90;;;;;;5073113;28;20029;-77
2023/05/06 04:29:40;;;;;;;11.07;6.80;;;8.50;99.90;;;;;;5072199;28;20031;-77
2023/05/06 04:32:06;;;;;;;8.35;6.38;;;8.50;99.90;;;;;;5073004;28;20036;-79
2023/05/06 04:34:32;;;;;;;8.98;6.00;;;8.60;99.90;;;;;;5073291;28;20134;-77
2023/05/06 04:36:57;;;;;;;8.10;5.88;;;8.60;99.90;;;;;;5073043;28;20070;-79
2023/05/06 04:39:26;;;;;;;8.25;6.15;;;8.70;99.90;;;;;;5071728;28;20035;-77
2023/05/06 04:41:51;;;;;;;7.95;6.03;;;8.80;99.90;;;;;;5070184;28;20062;-77
2023/05/06 04:44:18;;;;;;;6.95;5.53;;;8.80;99.90;;;;;;5070751;28;20424;-77
2023/05/06 04:46:44;;;;;;;10.10;5.88;;;8.70;99.90;;;;;;5071901;28;20637;-77
2023/05/06 04:49:10;;;;;;;8.68;5.65;;;8.80;99.90;;;;;;5071125;28;20058;-77
2023/05/06 04:51:35;;;;;;;8.43;5.80;;;8.80;99.90;;;;;;5072785;28;20123;-77
2023/05/06 04:54:01;;;;;;;6.50;5.80;;;8.90;99.90;;;;;;5073050;28;20024;-80
2023/05/06 04:56:26;;;;;;;11.35;6.85;;;8.90;99.90;;;;;;5072538;28;20024;-80
2023/05/06 04:58:52;;;;;;;9.30;6.22;;;8.90;99.90;;;;;;5071742;28;20034;-77
2023/05/06 05:01:18;;;;;;;8.95;5.93;;;9.00;99.90;;;;;;5072555;28;20028;-78
2023/05/06 05:03:44;;;;;;;10.73;6.00;;;9.00;99.90;;;;;;5070546;28;20174;-79
2023/05/06 05:06:12;;;;;;;7.55;5.63;;;9.00;99.90;;;;;;5072220;28;20389;-77
2023/05/06 05:08:38;;;;;;;8.57;6.00;;;9.10;99.90;;;;;;5072438;28;20103;-77
2023/05/06 05:11:05;;;;;;;7.68;5.88;;;9.10;99.90;;;;;;5070918;28;20058;-78
2023/05/06 05:13:31;;;;;;;7.47;5.70;;;9.10;99.90;;;;;;5072422;28;20026;-79
2023/05/06 05:15:57;;;;;;;9.90;6.93;;;9.20;99.90;;;;;;5072199;28;20394;-79
2023/05/06 05:18:23;;;;;;;7.75;6.60;;;9.20;99.90;;;;;;5072488;28;20238;-76
2023/05/06 05:20:48;;;;;;;9.80;6.63;;;9.20;99.90;;;;;;5070878;28;20086;-79
2023/05/06 05:23:14;;;;;;;9.25;7.10;;;9.30;99.90;;;;;;5070771;28;20482;-78
2023/05/06 05:25:40;;;;;;;8.70;6.63;;;9.30;99.90;;;;;;5071106;28;20032;-78
2023/05/06 05:28:05;;;;;;;8.82;6.68;;;9.30;99.90;;;;;;5070570;28;20020;-79
2023/05/06 05:30:33;;;;;;;9.77;6.43;;;9.30;99.90;;;;;;5070458;28;20155;-79
2023/05/06 05:32:59;;;;;;;8.75;5.78;;;9.30;99.90;;;;;;5070660;28;20547;-78
2023/05/06 05:35:24;;;;;;;7.00;5.63;;;9.40;99.90;;;;;;5070908;28;20021;-79
2023/05/06 05:37:50;;;;;;;12.75;6.22;;;9.40;99.90;;;;;;5071595;28;20401;-77
2023/05/06 05:40:16;;;;;;;7.82;5.65;;;9.40;99.90;;;;;;5071102;28;20032;-80
2023/05/06 05:42:43;;;;;;;8.18;5.85;;;9.50;98.50;;;;;;5072298;28;20098;-77
2023/05/06 05:45:09;;;;;;;9.60;5.55;;;9.60;98.90;;;;;;5072165;28;20032;-80
2023/05/06 05:47:34;;;;;;;8.55;5.90;;;9.60;97.80;;;;;;5071070;28;20028;-79
2023/05/06 05:50:00;;;;;;;9.05;6.25;;;9.70;96.80;;;;;;5070760;28;20093;-78
2023/05/06 05:52:26;;;;;;;7.60;5.43;;;9.70;96.20;;;;;;5070148;28;20108;-79
2023/05/06 05:54:52;;;;;;;10.23;6.43;;;9.80;94.80;;;;;;5069823;28;20021;-77
2023/05/06 05:57:17;;;;;;;10.05;5.95;;;9.80;92.30;;;;;;5071041;28;20103;-77
2023/05/06 05:59:43;;;;;;;9.85;6.13;;;9.80;91.70;;;;;;5071926;28;20111;-77
2023/05/06 06:02:08;;;;;;;8.40;5.72;;;9.90;92.20;;;;;;5073103;28;20024;-78
2023/05/06 06:04:34;;;;;;;9.55;5.20;;;10.00;92.60;;;;;;5073725;28;20017;-78
2023/05/06 06:07:03;;;;;;;7.32;5.38;;;10.00;91.70;;;;;;5072566;28;20035;-78
2023/05/06 06:09:28;;;;;;;8.23;5.38;;;10.00;91.80;;;;;;5071915;28;20394;-78
2023/05/06 06:11:54;;;;;;;10.73;6.45;;;10.20;91.00;;;;;;5073789;28;20036;-78
2023/05/06 06:14:19;;;;;;;10.75;5.60;;;10.20;89.10;;;;;;5070431;28;20067;-78
2023/05/06 06:16:45;;;;;;;8.98;5.43;;;10.30;87.60;;;;;;5070775;28;20020;-78
2023/05/06 06:19:12;;;;;;;8.98;5.38;;;10.50;85.60;;;;;;5072976;28;20021;-77
2023/05/06 06:21:37;;;;;;;8.65;5.07;;;10.70;85.20;;;;;;5072866;28;20478;-79
2023/05/06 06:24:03;;;;;;;7.30;5.30;;;10.90;83.20;;;;;;5073274;28;20027;-79
2023/05/06 06:26:29;;;;;;;7.65;5.65;;;11.10;80.00;;;;;;5075556;28;20016;-77
2023/05/06 06:28:55;;;;;;;7.28;4.63;;;11.10;78.20;;;;;;5074163;28;20027;-78
2023/05/06 06:31:20;;;;;;;7.43;4.55;;;11.10;79.10;;;;;;5075343;28;20072;-78
2023/05/06 06:33:46;;;;;;;9.27;6.40;;;11.30;77.80;;;;;;5074853;28;20053;-78
2023/05/06 06:36:11;;;;;;;6.40;4.15;;;11.60;78.30;;;;;;5072779;28;20516;-79
2023/05/06 06:38:37;;;;;;;11.23;4.50;;;11.80;77.80;;;;;;5073795;28;20463;-78
2023/05/06 06:41:03;;;;;;;8.80;6.35;;;11.80;75.30;;;;;;5074048;28;20027;-77
2023/05/06 06:43:29;;;;;;;6.07;5.00;;;11.80;74.80;;;;;;5072382;28;20024;-79
2023/05/06 06:45:55;;;;;;;4.95;4.53;;;11.90;75.70;;;;;;5072655;28;20595;-78
2023/05/06 06:48:20;;;;;;;5.20;4.20;;;12.00;75.20;;;;;;5073744;28;20012;-78
2023/05/06 06:50:46;;;;;;;6.22;4.75;;;12.00;74.50;;;;;;5072353;28;20048;-78
2023/05/06 06:53:12;;;;;;;7.43;4.85;;;12.00;74.60;;;;;;5073691;28;20128;-78
2023/05/06 06:55:37;;;;;;;6.32;4.28;;;12.10;74.50;;;;;;5072288;28;20421;-78
2023/05/06 06:58:03;;;;;;;10.05;5.22;;;12.00;74.30;;;;;;5073623;28;20063;-78
2023/05/06 07:00:29;;;;;;;10.43;5.20;;;12.10;74.70;;;;;;5073357;28;20033;-77
2023/05/06 07:02:54;;;;;;;5.65;5.00;;;12.00;74.30;;;;;;5073492;28;20444;-79
2023/05/06 07:05:20;;;;;;;6.82;4.78;;;12.00;74.40;;;;;;5074776;28;20116;-80
2023/05/06 07:07:46;;;;;;;9.15;5.45;;;12.10;75.50;;;;;;5071476;28;20436;-79
2023/05/06 07:10:11;;;;;;;7.15;4.53;;;12.10;75.40;;;;;;5071169;28;20028;-79
2023/05/06 07:12:37;;;;;;;7.32;4.95;;;12.10;74.90;;;;;;5073139;28;20367;-77
2023/05/06 07:15:05;;;;;;;7.93;4.85;;;12.20;76.10;;;;;;5074758;28;20469;-77
2023/05/06 07:17:32;;;;;;;12.32;5.38;;;12.10;75.00;;;;;;5072488;28;20028;-77
2023/05/06 07:19:57;;;;;;;5.63;5.07;;;12.30;75.90;;;;;;5072855;28;20394;-77
2023/05/06 07:22:23;;;;;;;5.47;4.97;;;12.20;75.20;;;;;;5073724;28;20028;-78
2023/05/06 07:24:49;;;;;;;7.03;5.07;;;12.30;75.30;;;;;;5073100;28;20394;-78
2023/05/06 07:27:14;;;;;;;6.25;4.32;;;12.40;75.50;;;;;;5072269;28;20032;-78
2023/05/06 07:29:40;;;;;;;8.30;4.57;;;12.50;75.00;;;;;;5074342;28;20024;-78
2023/05/06 07:32:06;;;;;;;8.23;5.43;;;12.70;75.70;;;;;;5072697;28;20036;-78
2023/05/06 07:34:33;;;;;;;6.65;4.88;;;12.70;74.10;;;;;;5071506;28;20090;-78
2023/05/06 07:36:59;;;;;;;8.48;5.20;;;12.70;74.40;;;;;;5072762;28;20027;-78
2023/05/06 07:39:24;;;;;;;5.85;4.95;;;12.70;74.50;;;;;;5074544;28;20017;-78
2023/05/06 07:41:50;;;;;;;5.18;4.63;;;12.60;73.00;;;;;;5072779;28;20029;-78
2023/05/06 07:44:16;;;;;;;9.88;5.00;;;12.60;73.70;;;;;;5073378;28;20103;-78
2023/05/06 07:46:41;;;;;;;4.78;4.35;;;12.70;74.30;;;;;;5074012;28;20482;-78
2023/05/06 07:49:07;;;;;;;8.25;4.90;;;12.80;74.30;;;;;;5072052;28;20020;-78
2023/05/06 07:51:33;;;;;;;5.85;5.20;;;12.70;73.40;;;;;;5070802;28;20127;-78
2023/05/06 07:53:58;;;;;;;10.27;6.15;;;12.70;74.30;;;;;;5072195;28;20031;-78
2023/05/06 07:56:24;;;;;;;6.65;5.18;;;12.80;73.50;;;;;;5072209;28;20107;-78
2023/05/06 07:58:50;;;;;;;5.00;4.43;;;12.80;73.40;;;;;;5071775;28;20104;-81
2023/05/06 08:01:15;;;;;;;5.57;4.45;;;12.70;72.50;;;;;;5072968;28;20024;-78
2023/05/06 08:03:42;;;;;;;6.90;5.00;;;12.70;72.80;;;;;;5072983;28;20478;-78
2023/05/06 08:06:08;;;;;;;7.43;5.10;;;12.70;73.50;;;;;;5072692;28;20035;-77
2023/05/06 08:08:33;;;;;;;7.53;4.93;;;12.70;74.20;;;;;;5070823;28;20033;-80
2023/05/06 08:10:59;;;;;;;7.22;4.72;;;12.80;74.80;;;;;;5053475;28;20098;-80
2023/05/06 08:13:26;;;;;;;8.85;5.13;;;12.80;75.10;;;;;;5053847;28;20029;-80
2023/05/06 08:15:52;;;;;;;7.90;4.68;;;12.80;75.00;;;;;;5062218;28;20032;-80
2023/05/06 08:18:21;;;;;;;5.97;4.90;;;12.70;73.60;;;;;;5051075;28;20375;-80
2023/05/06 08:20:47;;;;;;;6.45;5.03;;;12.80;74.10;;;;;;5052616;28;20490;-80
2023/05/06 08:23:12;;;;;;;7.43;5.38;;;12.70;74.50;;;;;;5069526;28;20055;-80
2023/05/06 08:25:38;;;;;;;7.40;5.60;;;12.70;74.40;;;;;;5070400;28;20037;-80
2023/05/06 08:28:03;;;;;;;10.15;5.53;;;12.70;74.10;;;;;;5072462;28;20044;-80
2023/05/06 08:30:29;;;;;;;6.07;5.03;;;12.70;74.80;;;;;;5069843;28;20401;-81
2023/05/06 08:32:55;;;;;;;6.55;5.60;;;12.70;75.70;;;;;;5068524;28;20024;-81
2023/05/06 08:35:20;;;;;;;11.07;4.90;;;12.70;76.70;;;;;;5070298;28;20064;-80
2023/05/06 08:37:46;;;;;;;6.90;4.90;;;12.70;75.40;;;;;;5087517;28;20020;-81
2023/05/06 08:40:20;;;;;;;6.15;5.40;;;12.70;76.50;;;;;;5090624;28;20057;-79
2023/05/06 08:42:46;;;;;;;5.10;4.60;;;12.60;76.10;;;;;;5072784;28;20056;-78
2023/05/06 08:45:13;;;;;;;6.05;5.38;;;12.60;77.20;;;;;;5071812;28;20047;-79
2023/05/06 08:47:39;;;;;;;8.95;6.93;;;12.60;76.40;;;;;;5071488;28;20535;-78
2023/05/06 08:50:06;;;;;;;8.90;5.95;;;12.70;77.70;;;;;;5071968;28;20040;-78
2023/05/06 08:52:32;;;;;;;7.10;5.75;;;12.70;78.60;;;;;;5070787;28;20029;-79
2023/05/06 08:55:00;;;;;;;9.73;6.80;;;12.70;78.70;;;;;;5071007;28;20037;-78
2023/05/06 08:57:29;;;;;;;9.73;6.15;;;12.70;78.20;;;;;;5070763;28;20031;-79
2023/05/06 08:59:55;;;;;;;9.32;5.65;;;12.70;79.50;;;;;;5070680;28;20115;-78
2023/05/06 09:02:21;;;;;;;7.75;5.57;;;12.80;80.30;;;;;;5070703;28;20016;-79
2023/05/06 09:04:48;;;;;;;9.60;5.85;;;12.70;78.70;;;;;;5070502;28;20036;-78
2023/05/06 09:07:14;;;;;;;10.10;5.50;;;12.60;80.00;;;;;;5072219;28;20478;-78
2023/05/06 09:09:39;;;;;;;8.10;6.10;;;12.60;80.20;;;;;;5071199;28;20028;-78
2023/05/06 09:12:12;;;;;;;9.85;6.25;;;12.70;81.40;;;;;;5071110;28;20040;-78
2023/05/06 09:14:38;;;;;;;;;;;12.60;81.20;;;;;;5068446;28;20033;-78
2023/05/06 09:17:04;;;;;;;8.57;6.35;;;12.60;80.20;;;;;;5068121;28;19908;-78
2023/05/06 09:19:33;;;;;;;12.55;7.20;;;12.60;80.90;;;;;;5070749;28;20090;-78
2023/05/06 09:21:59;;;;;;;8.43;6.30;;;12.70;80.90;;;;;;5070785;28;20497;-79
2023/05/06 09:24:25;;;;;;;11.55;6.88;;;12.70;80.70;;;;;;5070717;28;20040;-78
2023/05/06 09:26:54;;;;;;;9.95;6.43;;;12.80;81.20;;;;;;5070521;28;20410;-78
2023/05/06 09:29:20;;;;;;;8.55;6.72;;;12.80;82.40;;;;;;5070740;28;20020;-77
2023/05/06 09:31:46;;;;;;;8.07;6.47;;;12.90;81.80;;;;;;5070575;28;20119;-77
2023/05/06 09:34:13;;;;;;;7.68;6.53;;;13.00;81.00;;;;;;5073365;28;20036;-78
2023/05/06 09:36:39;;;;;;;11.40;6.68;;;13.00;81.10;;;;;;5074119;28;20037;-77
2023/05/06 09:39:05;;;;;;;9.85;6.43;;;13.00;80.00;;;;;;5074863;28;20039;-77
2023/05/06 09:41:31;;;;;;;19.48;7.68;;;13.00;80.90;;;;;;5076502;28;20025;-78
2023/05/06 09:43:58;;;;;;;16.70;7.82;;;13.00;81.90;;;;;;5074232;28;20074;-79
2023/05/06 09:46:25;;;;;;;10.80;6.65;;;13.20;81.90;;;;;;5072513;28;20111;-79
2023/05/06 09:48:52;;;;;;;7.78;6.85;;;13.20;80.00;;;;;;5074591;28;20024;-78
2023/05/06 09:51:19;;;;;;;8.70;6.93;;;13.20;79.10;;;;;;5072439;28;20064;-78
2023/05/06 09:53:45;;;;;;;8.80;6.00;;;13.30;80.30;;;;;;5072307;28;20021;-77
2023/05/06 09:56:12;;;;;;;9.10;6.75;;;13.50;80.60;;;;;;5070762;28;20020;-78
2023/05/06 09:58:38;;;;;;;12.90;8.15;;;13.60;81.00;;;;;;5069313;28;20059;-78
2023/05/06 10:01:06;;;;;;;10.00;7.20;;;13.60;80.90;;;;;;5070846;28;20028;-77
2023/05/06 10:03:33;;;;;;;11.43;7.53;;;13.80;81.30;;;;;;5070824;28;20028;-79
2023/05/06 10:06:01;;;;;;;11.82;6.80;;;13.80;81.00;;;;;;5074067;28;20021;-78
2023/05/06 10:08:27;;;;;;;10.40;7.82;;;13.80;79.60;;;;;;5073841;28;20027;-79
2023/05/06 10:10:53;;;;;;;10.77;7.88;;;13.70;79.40;;;;;;5072964;28;20424;-78
2023/05/06 10:13:20;;;;;;;11.95;7.75;;;13.50;79.40;;;;;;5074769;28;20053;-78
2023/05/06 10:15:47;;;;;;;10.20;7.60;;;13.30;80.60;;;;;;5074537;28;20111;-79
2023/05/06 10:18:16;;;;;;;15.18;7.70;;;13.20;80.80;;;;;;5075893;28;20107;-79
2023/05/06 10:20:43;;;;;;;13.23;7.05;;;13.20;81.30;;;;;;5076004;28;20024;-79
2023/05/06 10:23:16;;;;;;;16.30;8.48;;;13.20;81.40;;;;;;5075953;28;20062;-78
2023/05/06 10:25:43;;;;;;;12.73;8.93;;;13.10;83.20;;;;;;5074736;28;20115;-78
2023/05/06 10:28:10;;;;;;;11.57;8.13;;;13.10;85.60;;;;;;5074541;28;20029;-79
2023/05/06 10:30:38;;;;;;;13.30;9.23;;;12.90;91.50;;;;;;5074575;28;20046;-78
2023/05/06 10:33:07;;;;;;;15.63;9.93;;;12.90;99.90;;;;;;5074336;28;20119;-78
2023/05/06 10:35:50;;;;;;;11.07;8.95;;;12.80;99.90;;;;;;5074536;28;20031;-80
2023/05/06 10:38:25;;;;;;;12.90;9.32;;;12.80;99.90;;;;;;5074937;28;20021;-79
2023/05/06 10:40:52;;;;;;;16.92;10.45;;;12.80;99.90;;;;;;5074434;28;20490;-79
2023/05/06 10:43:31;;;;;;;12.98;9.05;;;12.80;99.90;;;;;;5075652;28;20118;-78
2023/05/06 10:46:12;;;;;;;14.23;9.80;;;12.80;99.90;;;;;;5073122;28;20047;-78
2023/05/06 10:48:57;;;;;;;12.15;9.05;;;12.60;99.90;;;;;;5075570;28;20137;-78
2023/05/06 10:51:25;;;;;;;13.95;10.15;;;12.50;99.90;;;;;;5075648;28;20059;-79
2023/05/06 10:53:57;;;;;;;18.25;10.80;;;12.40;99.90;;;;;;5073968;28;20028;-78
2023/05/06 10:56:28;;;;;;;15.85;9.52;;;12.30;99.90;;;;;;5075461;28;20401;-78
2023/05/06 10:58:54;;;;;;;18.83;10.75;;;12.10;99.90;;;;;;5074175;28;20052;-78
2023/05/06 11:01:30;;;;;;;16.55;11.85;;;12.10;99.90;;;;;;5075394;28;20013;-78
2023/05/06 11:03:56;;;;;;;17.50;12.52;;;12.10;99.90;;;;;;5073867;28;20028;-79
2023/05/06 11:06:43;;;;;;;16.23;11.93;;;12.10;99.90;;;;;;5073921;28;20025;-78
2023/05/06 11:09:20;;;;;;;17.38;12.43;;;12.10;99.90;;;;;;5075225;28;20106;-79
2023/05/06 11:12:03;;;;;;;21.80;17.50;;;12.10;99.90;;;;;;5075016;28;20520;-80
2023/05/06 11:14:31;;;;;;;28.52;21.42;;;12.00;99.90;;;;;;5073746;28;20034;-80
2023/05/06 11:16:58;;;;;;;20.83;14.45;;;11.90;99.90;;;;;;5073681;28;20107;-79
2023/05/06 11:19:26;;;;;;;18.60;13.43;;;11.90;99.90;;;;;;5075000;28;20043;-78
2023/05/06 11:21:53;;;;;;;22.77;14.75;;;11.90;99.90;;;;;;5073556;28;20162;-78
2023/05/06 11:24:27;;;;;;;20.25;15.45;;;11.90;99.90;;;;;;5074892;28;20077;-78
2023/05/06 11:26:54;;;;;;;24.30;15.70;;;11.80;99.90;;;;;;5074631;28;20104;-78
2023/05/06 11:29:20;;;;;;;22.20;15.70;;;11.80;99.90;;;;;;5073575;28;20020;-78
2023/05/06 11:31:46;;;;;;;21.67;14.52;;;11.80;99.90;;;;;;5074782;28;20064;-79
2023/05/06 11:34:19;;;;;;;20.45;13.20;;;11.80;99.90;;;;;;5074665;28;20072;-80
2023/05/06 11:36:45;;;;;;;;;;;11.80;99.90;;;;;;5073767;28;20048;-80
2023/05/06 11:39:11;;;;;;;13.90;10.73;;;11.70;99.90;;;;;;5073247;28;19912;-79
2023/05/06 11:41:40;;;;;;;18.40;11.57;;;11.70;99.90;;;;;;5074489;28;20021;-79
2023/05/06 11:44:06;;;;;;;19.75;13.10;;;11.70;99.90;;;;;;5074355;28;20113;-80
2023/05/06 11:46:33;;;;;;;18.60;12.85;;;11.70;99.90;;;;;;5073237;28;20027;-78
2023/05/06 11:48:59;;;;;;;17.25;12.38;;;11.70;99.90;;;;;;5072915;28;20031;-78
2023/05/06 11:51:25;;;;;;;13.35;11.50;;;11.70;99.90;;;;;;5074196;28;20478;-79
2023/05/06 11:54:08;;;;;;;19.75;13.38;;;11.70;99.90;;;;;;5074123;28;20112;-79
2023/05/06 11:56:51;;;;;;;22.10;13.77;;;11.70;99.90;;;;;;5072668;28;20025;-79
2023/05/06 11:59:25;;;;;;;15.38;12.77;;;11.70;99.90;;;;;;5074058;28;20017;-80
2023/05/06 12:01:51;;;;;;;23.08;13.77;;;11.80;99.90;;;;;;5074152;28;20020;-79
2023/05/06 12:04:16;;;;;;;16.25;12.30;;;11.80;99.90;;;;;;5073859;28;20138;-79
2023/05/06 12:06:42;;;;;;;19.58;13.55;;;11.80;99.90;;;;;;5074058;28;20104;-78
2023/05/06 12:09:11;;;;;;;17.08;13.32;;;11.80;99.90;;;;;;5074077;28;20040;-79
2023/05/06 12:11:38;;;;;;;17.17;12.10;;;11.70;99.90;;;;;;5073820;28;20115;-79
2023/05/06 12:14:06;;;;;;;19.67;13.75;;;11.70;99.90;;;;;;5072547;28;20035;-78
2023/05/06 12:16:34;;;;;;;18.08;12.77;;;11.70;99.90;;;;;;5073952;28;20051;-79
2023/05/06 12:19:00;;;;;;;19.83;13.98;;;11.70;99.90;;;;;;5073753;28;20045;-80
2023/05/06 12:21:27;;;;;;;18.08;12.77;;;11.70;99.90;;;;;;5072693;28;20119;-79
2023/05/06 12:24:00;;;;;;;19.52;13.13;;;11.70;99.90;;;;;;5073736;28;20048;-79
2023/05/06 12:26:26;;;;;;;24.58;15.35;;;11.70;99.90;;;;;;5073867;28;20441;-79
2023/05/06 12:29:07;;;;;;;20.55;12.45;;;11.60;99.90;;;;;;5073573;28;20056;-79
2023/05/06 12:31:33;;;;;;;18.58;13.15;;;11.60;99.90;;;;;;5072336;28;20082;-79
2023/05/06 12:33:59;;;;;;;19.67;14.32;;;11.60;99.90;;;;;;5073464;28;20044;-80
2023/05/06 12:36:25;;;;;;;19.30;14.25;;;11.70;99.90;;;;;;5072343;28;20428;-79
2023/05/06 12:38:56;;;;;;;24.17;15.23;;;11.60;99.90;;;;;;5073485;28;20025;-79
2023/05/06 12:41:23;;;;;;;23.55;16.65;;;11.60;99.90;;;;;;5072221;28;20066;-79
2023/05/06 12:43:49;;;;;;;23.25;14.93;;;11.60;99.90;;;;;;5072025;28;20077;-79
2023/05/06 12:46:16;;;;;;;18.10;14.05;;;11.60;99.90;;;;;;5072094;28;20070;-79